createdAt,value
2019-05-18T06:57:42.031Z,25.21
2019-05-18T07:02:38.346Z,23.64
2019-05-18T07:07:44.873Z,22.89
2019-05-18T07:12:53.278Z,22.09
2019-05-18T07:17:59.957Z,22.14
2019-05-18T07:23:06.663Z,22.53
2019-05-18T07:28:18.469Z,23.60
2019-05-18T07:33:15.197Z,22.08
2019-05-18T07:38:21.600Z,23.72
2019-05-18T07:43:27.776Z,21.77
2019-05-18T07:48:33.956Z,21.31
2019-05-18T07:53:40.406Z,21.68
2019-05-18T07:58:46.585Z,20.58
2019-05-18T08:03:52.796Z,20.68
2019-05-18T08:08:59.072Z,20.55
2019-05-18T08:14:05.360Z,18.77
2019-05-18T08:19:11.709Z,18.32
2019-05-18T08:24:18.057Z,18.09
2019-05-18T08:29:24.773Z,16.56
2019-05-18T08:34:32.022Z,15.97
2019-05-18T08:39:39.018Z,16.55
2019-05-18T08:44:45.483Z,13.20
2019-05-18T08:49:51.794Z,14.96
2019-05-18T08:54:58.864Z,12.80
2019-05-18T09:00:05.629Z,12.75
2019-05-18T09:05:11.875Z,12.27
2019-05-18T09:10:18.251Z,12.39
2019-05-18T09:15:25.111Z,11.52
2019-05-18T09:20:32.086Z,11.40
2019-05-18T09:25:38.728Z,11.50
2019-05-18T09:30:45.288Z,10.52
2019-05-18T09:35:52.436Z,10.69
2019-05-18T09:40:58.632Z,10.88
2019-05-18T09:46:04.915Z,11.33
2019-05-18T09:51:12.190Z,10.33
2019-05-18T09:56:18.540Z,10.75
2019-05-18T10:01:24.659Z,10.93
2019-05-18T10:06:31.613Z,9.34
2019-05-18T10:11:38.629Z,9.54
2019-05-18T10:16:45.176Z,10.68
2019-05-18T10:21:52.246Z,9.56
2019-05-18T10:26:58.372Z,10.40
2019-05-18T10:32:04.617Z,9.47
2019-05-18T10:37:10.857Z,10.78
2019-05-18T10:42:17.676Z,9.88
2019-05-18T10:47:27.246Z,9.58
2019-05-18T10:52:33.962Z,9.32
2019-05-18T10:57:40.475Z,9.40
2019-05-18T11:02:46.703Z,9.43
2019-05-18T11:07:52.843Z,9.02
2019-05-18T11:12:59.321Z,10.52
2019-05-18T11:18:09.823Z,10.81
2019-05-18T11:23:06.329Z,10.53
2019-05-18T11:28:12.518Z,10.86
2019-05-18T11:33:27.986Z,9.98
2019-05-18T11:38:46.161Z,11.79
2019-05-18T11:43:36.074Z,9.73
2019-05-18T11:48:42.483Z,9.73
2019-05-18T11:53:57.850Z,9.04
2019-05-18T11:59:00.028Z,9.09
2019-05-18T12:04:05.585Z,9.14
2019-05-18T12:09:02.264Z,8.64
2019-05-18T12:14:08.461Z,8.67
2019-05-18T12:19:14.876Z,9.90
2019-05-18T12:24:21.488Z,8.80
2019-05-18T12:29:44.411Z,8.74
2019-05-18T12:34:30.939Z,9.53
2019-05-18T12:39:44.180Z,8.84
2019-05-18T12:44:40.870Z,9.31
2019-05-18T12:49:47.187Z,9.94
2019-05-18T12:54:53.611Z,9.14
2019-05-18T13:00:00.672Z,9.70
2019-05-18T13:05:07.078Z,7.55
2019-05-18T13:10:13.652Z,6.93
2019-05-18T13:15:20.238Z,7.54
2019-05-18T13:20:26.682Z,6.32
2019-05-18T13:25:32.969Z,6.32
2019-05-18T13:30:39.201Z,7.14
2019-05-18T13:35:45.734Z,5.47
2019-05-18T13:40:52.145Z,5.58
2019-05-18T13:45:58.484Z,6.03
2019-05-18T13:51:05.031Z,6.53
2019-05-18T13:56:11.526Z,5.81
2019-05-18T14:01:17.733Z,5.53
2019-05-18T14:06:23.948Z,5.62
2019-05-18T14:11:30.341Z,5.09
2019-05-18T14:16:36.792Z,4.81
2019-05-18T14:21:43.471Z,5.84
2019-05-18T14:26:50.314Z,5.43
2019-05-18T14:31:56.938Z,7.33
2019-05-18T14:37:03.508Z,4.48
2019-05-18T14:42:09.773Z,5.29
2019-05-18T14:47:16.180Z,6.33
2019-05-18T14:52:22.944Z,5.18
2019-05-18T14:57:29.141Z,5.62
2019-05-18T15:02:35.775Z,5.08
2019-05-18T15:07:42.304Z,5.32
2019-05-18T15:12:48.468Z,5.68
2019-05-18T15:17:55.371Z,5.71
2019-05-18T15:23:01.568Z,5.32
2019-05-18T15:28:08.091Z,5.45
2019-05-18T15:33:17.784Z,20.75
2019-05-18T15:38:24.149Z,4.38
2019-05-18T15:43:34.297Z,4.78
2019-05-18T15:48:32.868Z,5.48
2019-05-18T15:53:39.710Z,4.80
2019-05-18T15:58:51.173Z,12.90
2019-05-18T16:03:50.162Z,10.99
2019-05-18T16:09:13.378Z,12.49
2019-05-18T16:14:00.214Z,14.32
2019-05-18T16:19:11.303Z,13.74
2019-05-18T16:24:07.914Z,14.97
2019-05-18T16:29:14.201Z,21.84
2019-05-18T16:34:20.684Z,16.75
2019-05-18T16:39:27.441Z,15.71
2019-05-18T16:44:37.392Z,15.57
2019-05-18T16:49:46.754Z,18.49
2019-05-18T16:54:53.298Z,18.21
2019-05-18T16:59:59.890Z,20.04
2019-05-18T17:05:06.663Z,16.20
2019-05-18T17:10:13.289Z,24.51
2019-05-18T17:15:19.685Z,15.47
2019-05-18T17:20:27.073Z,14.90
2019-05-18T17:25:33.322Z,17.67
2019-05-18T17:30:42.641Z,18.04
2019-05-18T17:35:59.791Z,17.25
2019-05-18T17:40:56.157Z,16.57
2019-05-18T17:46:02.480Z,16.68
2019-05-18T17:51:08.972Z,17.75
2019-05-18T17:56:15.673Z,17.81
2019-05-18T18:01:21.733Z,18.10
2019-05-18T18:06:28.384Z,22.10
2019-05-18T18:11:35.227Z,23.23
2019-05-18T18:16:41.969Z,21.28
2019-05-18T18:21:48.372Z,17.83
2019-05-18T18:26:54.744Z,18.19
2019-05-18T18:32:02.627Z,22.36
2019-05-18T18:37:13.970Z,22.82
2019-05-18T18:42:16.437Z,25.35
2019-05-18T18:47:16.036Z,26.06
2019-05-18T18:52:22.479Z,24.43
2019-05-18T18:57:40.747Z,30.74
2019-05-18T19:02:35.750Z,34.92
2019-05-18T19:07:41.993Z,25.93
2019-05-18T19:12:48.311Z,29.53
2019-05-18T19:17:54.824Z,24.68
2019-05-18T19:23:01.377Z,25.93
2019-05-18T19:28:07.599Z,31.67
2019-05-18T19:33:14.150Z,29.71
2019-05-18T19:38:20.595Z,29.89
2019-05-18T19:43:27.304Z,28.23
2019-05-18T19:48:33.692Z,26.62
2019-05-18T19:53:39.852Z,27.21
2019-05-18T19:58:46.049Z,24.59
2019-05-18T20:03:52.326Z,26.24
2019-05-18T20:08:58.753Z,25.21
2019-05-18T20:14:07.023Z,29.82
2019-05-18T20:19:13.286Z,29.99
2019-05-18T20:24:19.491Z,26.42
2019-05-18T20:29:26.784Z,26.02
2019-05-18T20:34:33.126Z,26.68
2019-05-18T20:39:39.612Z,27.38
2019-05-18T20:44:46.208Z,28.38
2019-05-18T20:49:52.372Z,27.00
2019-05-18T20:54:58.664Z,30.64
2019-05-18T21:00:04.724Z,28.12
2019-05-18T21:05:11.555Z,27.29
2019-05-18T21:10:17.776Z,29.51
2019-05-18T21:15:24.291Z,28.89
2019-05-18T21:20:30.485Z,28.74
2019-05-18T21:25:36.727Z,27.03
2019-05-18T21:30:43.252Z,29.67
2019-05-18T21:35:50.390Z,28.88
2019-05-18T21:41:01.657Z,28.07
2019-05-18T21:46:00.203Z,30.13
2019-05-18T21:51:16.539Z,30.68
2019-05-18T21:56:12.678Z,31.05
2019-05-18T22:01:18.800Z,32.33
2019-05-18T22:06:25.055Z,31.85
2019-05-18T22:11:31.586Z,29.57
2019-05-18T22:16:38.154Z,31.50
2019-05-18T22:21:44.512Z,32.78
2019-05-18T22:26:52.465Z,33.50
2019-05-18T22:31:58.820Z,32.50
2019-05-18T22:37:05.059Z,31.88
2019-05-18T22:42:11.456Z,33.20
2019-05-18T22:47:18.124Z,33.80
2019-05-18T22:52:28.375Z,34.18
2019-05-18T22:57:25.623Z,33.64
2019-05-18T23:02:36.117Z,34.47
2019-05-18T23:07:32.473Z,33.29
2019-05-18T23:12:40.521Z,34.71
2019-05-18T23:17:47.260Z,35.88
2019-05-18T23:22:54.046Z,35.26
2019-05-18T23:28:00.768Z,35.03
2019-05-18T23:33:07.082Z,36.38
2019-05-18T23:38:15.076Z,38.68
2019-05-18T23:43:21.522Z,37.30
2019-05-18T23:48:27.946Z,42.65
2019-05-18T23:53:34.294Z,39.67
2019-05-18T23:58:40.789Z,41.15
